Time;durP1;ratioP1;P1;durP2;ratioP2;P2;SDS_P1;SDS_P2;PMS_P1;PMS_P2;Temp;Humidity;BMP_temperature;BMP_pressure;BME280_temperature;BME280_humidity;BME280_pressure;Samples;Min_cycle;Max_cycle;Signal;HPM_P1;HPM_P2
2023/06/06 00:00:57;;;;;;;6.47;3.22;;;14.50;91.40;;;;;;10540181;28;20229;-89
2023/06/06 00:06:00;;;;;;;5.85;2.78;;;14.40;90.90;;;;;;10517690;28;20638;-89
2023/06/06 00:11:03;;;;;;;6.60;2.65;;;14.40;91.00;;;;;;10519422;28;20257;-89
2023/06/06 00:16:06;;;;;;;6.63;2.65;;;14.50;90.20;;;;;;10539199;28;20275;-89
2023/06/06 00:21:09;;;;;;;4.95;3.13;;;14.60;88.60;;;;;;10504036;28;20267;-89
2023/06/06 00:26:12;;;;;;;3.45;2.40;;;14.50;89.20;;;;;;10518629;28;20205;-89
2023/06/06 00:31:17;;;;;;;4.68;2.92;;;14.60;88.00;;;;;;10519305;28;20654;-93
2023/06/06 00:36:19;;;;;;;3.28;2.55;;;14.60;85.60;;;;;;10519136;28;20225;-90
2023/06/06 00:41:22;;;;;;;4.60;3.33;;;14.60;86.50;;;;;;10537918;28;20246;-89
2023/06/06 00:46:25;;;;;;;6.40;2.75;;;14.70;85.90;;;;;;10536250;28;20765;-89
2023/06/06 00:51:28;;;;;;;7.20;3.22;;;14.70;89.90;;;;;;10514161;28;20603;-88
2023/06/06 00:56:31;;;;;;;6.05;2.88;;;14.70;87.80;;;;;;10477394;28;20249;-88
2023/06/06 01:01:36;;;;;;;5.40;2.75;;;14.70;88.50;;;;;;10506522;28;20725;-89
2023/06/06 01:06:39;;;;;;;6.15;2.47;;;14.80;90.10;;;;;;10488663;28;20254;-89
2023/06/06 01:12:07;;;;;;;4.93;3.08;;;14.90;89.60;;;;;;10510360;28;20202;-88
2023/06/06 01:17:11;;;;;;;2.83;1.98;;;14.90;86.20;;;;;;10536349;28;20777;-89
2023/06/06 01:22:22;;;;;;;3.60;2.53;;;15.00;87.80;;;;;;10499056;28;20206;-89
2023/06/06 01:27:27;;;;;;;4.40;2.60;;;15.00;87.50;;;;;;10517384;28;20237;-89
2023/06/06 01:32:37;;;;;;;3.70;2.55;;;15.00;86.50;;;;;;10516278;28;20593;-89
2023/06/06 01:37:52;;;;;;;6.38;2.83;;;14.90;84.70;;;;;;10534834;28;20236;-89
2023/06/06 01:42:55;;;;;;;5.25;1.90;;;15.00;86.10;;;;;;10517134;28;20541;-89
2023/06/06 01:47:59;;;;;;;2.92;2.08;;;15.00;86.80;;;;;;10535631;28;20330;-89
2023/06/06 01:53:02;;;;;;;3.50;2.05;;;14.90;85.60;;;;;;10534194;28;20240;-89
2023/06/06 01:58:05;;;;;;;5.20;3.22;;;15.00;86.50;;;;;;10500397;28;20808;-89
2023/06/06 02:03:08;;;;;;;2.63;2.40;;;15.00;84.90;;;;;;10500356;28;20227;-89
2023/06/06 02:08:11;;;;;;;5.80;2.95;;;15.10;83.90;;;;;;10478472;28;20242;-89
2023/06/06 02:13:14;;;;;;;4.72;3.08;;;15.10;81.90;;;;;;10481108;28;20206;-90
2023/06/06 02:18:17;;;;;;;10.30;3.53;;;15.10;82.60;;;;;;10533492;28;20719;-89
2023/06/06 02:23:19;;;;;;;13.57;3.03;;;15.10;82.30;;;;;;10507281;28;20209;-89
2023/06/06 02:28:23;;;;;;;5.15;2.80;;;15.00;83.60;;;;;;10525239;28;20265;-89
2023/06/06 02:33:26;;;;;;;6.30;3.00;;;14.80;84.60;;;;;;10542345;28;20233;-89
2023/06/06 02:38:28;;;;;;;6.72;3.78;;;14.80;87.00;;;;;;10540866;28;20271;-88
2023/06/06 02:43:31;;;;;;;7.20;3.95;;;14.60;87.10;;;;;;10523794;28;20271;-89
2023/06/06 02:48:34;;;;;;;5.45;3.80;;;14.50;89.00;;;;;;10522573;28;20333;-89
2023/06/06 02:53:40;;;;;;;4.72;3.50;;;14.30;90.40;;;;;;10507172;28;20618;-89
2023/06/06 02:58:44;;;;;;;6.10;3.75;;;14.40;91.60;;;;;;10522232;28;20263;-89
2023/06/06 03:03:47;;;;;;;7.85;3.95;;;14.50;91.40;;;;;;10523570;28;20197;-90
2023/06/06 03:08:55;;;;;;;3.72;2.63;;;14.50;91.00;;;;;;10523171;28;20249;-90
2023/06/06 03:13:58;;;;;;;2.90;2.58;;;14.60;90.80;;;;;;10505546;28;20249;-89
2023/06/06 03:19:03;;;;;;;2.78;2.38;;;14.90;91.40;;;;;;10521558;28;20668;-90
2023/06/06 03:24:08;;;;;;;6.35;3.38;;;14.90;90.40;;;;;;10522353;28;20206;-89
2023/06/06 03:29:12;;;;;;;3.85;3.40;;;15.10;88.70;;;;;;10505442;28;20318;-89
2023/06/06 03:34:15;;;;;;;3.03;2.75;;;15.10;89.80;;;;;;10520803;28;20254;-89
2023/06/06 03:39:20;;;;;;;10.60;4.13;;;15.20;88.50;;;;;;10504822;28;20737;-89
2023/06/06 03:44:23;;;;;;;15.70;4.65;;;15.40;87.50;;;;;;10520234;28;20205;-89
2023/06/06 03:49:25;;;;;;;7.43;3.35;;;15.50;85.90;;;;;;10520303;28;20233;-89
2023/06/06 03:54:28;;;;;;;5.57;4.30;;;15.70;87.90;;;;;;10521462;28;20263;-90
2023/06/06 03:59:30;;;;;;;3.63;2.80;;;15.70;84.50;;;;;;10520293;28;20662;-89
2023/06/06 04:04:33;;;;;;;10.27;4.03;;;15.90;85.70;;;;;;10517933;28;20247;-90
2023/06/06 04:09:36;;;;;;;9.85;3.85;;;16.10;85.60;;;;;;10513639;28;20279;-90
2023/06/06 04:14:38;;;;;;;8.00;4.30;;;16.10;85.50;;;;;;10500823;28;20322;-90
2023/06/06 04:19:42;;;;;;;8.82;5.00;;;16.20;83.30;;;;;;10520534;28;20224;-90
2023/06/06 04:24:44;;;;;;;7.45;3.03;;;16.20;84.50;;;;;;10485926;28;20202;-90
2023/06/06 04:29:50;;;;;;;9.95;4.10;;;16.30;85.00;;;;;;10518139;28;20225;-89
2023/06/06 04:34:57;;;;;;;5.65;4.68;;;16.40;84.90;;;;;;10537949;28;20194;-90
2023/06/06 04:40:01;;;;;;;4.53;3.33;;;16.40;83.70;;;;;;10518462;28;20239;-89
2023/06/06 04:45:05;;;;;;;7.95;4.82;;;16.40;86.40;;;;;;10476612;28;20218;-89
2023/06/06 04:50:08;;;;;;;6.82;4.00;;;16.60;83.80;;;;;;10510572;28;20257;-89
2023/06/06 04:55:11;;;;;;;6.63;4.57;;;16.70;84.20;;;;;;10531741;28;20213;-89
2023/06/06 05:00:14;;;;;;;8.57;5.35;;;17.10;81.80;;;;;;10525561;28;20267;-89
2023/06/06 05:05:18;;;;;;;6.55;4.90;;;17.40;80.20;;;;;;10523173;28;20240;-90
2023/06/06 05:10:20;;;;;;;7.47;4.22;;;17.60;76.00;;;;;;10531234;28;20253;-90
2023/06/06 05:15:23;;;;;;;8.85;4.70;;;18.00;75.10;;;;;;10533831;28;20729;-90
2023/06/06 05:20:25;;;;;;;8.68;4.38;;;18.30;72.60;;;;;;10533743;28;20229;-89
2023/06/06 05:25:28;;;;;;;11.23;5.40;;;18.50;71.30;;;;;;10514578;28;20294;-90
2023/06/06 05:30:30;;;;;;;3.63;3.28;;;18.70;69.90;;;;;;10513420;28;20303;-91
2023/06/06 05:35:33;;;;;;;26.85;5.55;;;18.80;68.50;;;;;;10527392;28;20216;-90
2023/06/06 05:40:35;;;;;;;19.38;5.15;;;18.90;69.40;;;;;;10523998;28;20270;-90
2023/06/06 05:45:38;;;;;;;12.00;4.57;;;18.90;69.90;;;;;;10532911;28;20722;-89
2023/06/06 05:50:41;;;;;;;5.38;3.55;;;18.90;67.40;;;;;;10533043;28;20629;-91
2023/06/06 05:55:43;;;;;;;5.15;3.22;;;19.00;64.60;;;;;;10522805;28;20228;-90
2023/06/06 06:00:46;;;;;;;3.38;3.03;;;19.10;62.40;;;;;;10506862;28;20194;-90
2023/06/06 06:05:49;;;;;;;5.18;3.28;;;19.30;59.20;;;;;;10493183;28;20665;-91
2023/06/06 06:10:52;;;;;;;3.47;2.95;;;19.60;56.40;;;;;;10532609;28;20680;-89
2023/06/06 06:15:54;;;;;;;16.08;4.30;;;19.70;57.00;;;;;;10535868;28;20225;-89
2023/06/06 06:20:58;;;;;;;10.30;4.28;;;19.90;51.20;;;;;;10527248;28;20198;-89
2023/06/06 06:26:01;;;;;;;6.57;3.70;;;20.00;52.40;;;;;;10528219;28;20251;-89
2023/06/06 06:31:04;;;;;;;11.43;3.95;;;20.20;51.90;;;;;;10533458;28;20272;-89
2023/06/06 06:36:06;;;;;;;6.88;4.15;;;20.50;48.00;;;;;;10502215;28;20229;-90
2023/06/06 06:41:09;;;;;;;5.05;3.63;;;20.70;47.90;;;;;;10507162;28;20278;-90
2023/06/06 06:46:12;;;;;;;6.40;4.50;;;20.90;46.30;;;;;;10505298;28;20202;-94
2023/06/06 06:51:16;;;;;;;9.07;4.25;;;21.10;43.90;;;;;;10519276;28;20626;-94
2023/06/06 06:56:18;;;;;;;9.38;4.97;;;21.40;43.40;;;;;;10519153;28;20201;-93
2023/06/06 07:01:27;;;;;;;42.92;5.97;;;21.50;43.00;;;;;;10511177;28;20240;-93
2023/06/06 07:06:33;;;;;;;36.35;5.68;;;21.70;39.60;;;;;;10512708;28;20233;-92
2023/06/06 07:11:35;;;;;;;10.68;5.55;;;21.90;40.10;;;;;;10536183;28;20321;-94
2023/06/06 07:16:39;;;;;;;30.27;5.28;;;22.20;39.20;;;;;;10519475;28;20966;-87
2023/06/06 07:21:41;;;;;;;25.52;5.15;;;22.30;37.60;;;;;;10540090;28;20229;-84
2023/06/06 07:26:44;;;;;;;20.17;5.03;;;22.50;36.80;;;;;;10539039;28;20259;-85
2023/06/06 07:31:47;;;;;;;14.35;4.70;;;;;;;;;;10520883;28;20282;-85
2023/06/06 07:36:50;;;;;;;22.73;4.05;;;22.80;33.40;;;;;;10535279;28;20672;-86
2023/06/06 07:41:52;;;;;;;16.02;3.80;;;22.90;34.20;;;;;;10540222;28;20514;-86
2023/06/06 07:46:55;;;;;;;23.63;4.88;;;22.80;62.50;;;;;;10538358;28;20661;-85
2023/06/06 07:51:57;;;;;;;9.25;3.83;;;23.00;32.90;;;;;;10496811;28;20261;-85
2023/06/06 07:57:01;;;;;;;17.23;3.85;;;23.00;32.30;;;;;;10538502;28;20225;-91
2023/06/06 08:02:05;;;;;;;12.93;3.75;;;23.10;33.10;;;;;;10519359;28;20227;-94
2023/06/06 08:07:09;;;;;;;9.85;3.33;;;23.20;31.90;;;;;;10499344;28;20681;-90
2023/06/06 08:12:12;;;;;;;9.55;3.78;;;23.40;31.70;;;;;;10538988;28;20650;-93
2023/06/06 08:17:15;;;;;;;8.55;3.55;;;23.50;30.40;;;;;;10520104;28;20632;-93
2023/06/06 08:22:17;;;;;;;17.40;4.35;;;23.50;29.90;;;;;;10536406;28;20235;-88
2023/06/06 08:27:20;;;;;;;17.92;4.03;;;23.70;28.90;;;;;;10536258;28;20237;-86
2023/06/06 08:32:23;;;;;;;8.38;3.03;;;23.80;29.10;;;;;;10538033;28;20629;-87
2023/06/06 08:37:25;;;;;;;10.70;3.92;;;24.10;28.60;;;;;;10536649;28;20229;-86
2023/06/06 08:42:30;;;;;;;8.18;3.20;;;24.30;27.40;;;;;;10537172;28;20197;-87
2023/06/06 08:47:34;;;;;;;8.07;3.08;;;24.40;25.90;;;;;;10536286;28;20202;-87
2023/06/06 08:52:39;;;;;;;9.05;3.08;;;24.60;25.70;;;;;;10536279;28;20257;-88
2023/06/06 08:57:43;;;;;;;11.48;3.90;;;25.10;24.10;;;;;;10531219;28;20229;-87
2023/06/06 09:02:52;;;;;;;8.43;3.25;;;25.20;19.20;;;;;;10508688;28;20260;-87
2023/06/06 09:07:55;;;;;;;6.65;2.55;;;;;;;;;;10534450;28;20233;-87
2023/06/06 09:12:58;;;;;;;6.60;2.83;;;25.10;21.70;;;;;;10516615;28;20739;-88
2023/06/06 09:18:01;;;;;;;5.60;2.80;;;25.10;19.20;;;;;;10514357;28;20287;-88
2023/06/06 09:23:04;;;;;;;5.45;2.72;;;25.30;19.40;;;;;;10491479;28;20240;-86
2023/06/06 09:28:06;;;;;;;10.15;2.60;;;25.60;17.00;;;;;;10534066;28;20298;-86
2023/06/06 09:33:10;;;;;;;3.83;2.35;;;26.10;14.90;;;;;;10534107;28;20229;-87
2023/06/06 09:38:18;;;;;;;4.25;3.05;;;26.20;14.90;;;;;;10513389;28;20233;-87
2023/06/06 09:43:25;;;;;;;7.47;2.83;;;26.10;12.70;;;;;;10533255;28;20302;-86
2023/06/06 09:48:28;;;;;;;5.38;2.28;;;26.10;14.60;;;;;;10529017;28;20231;-88
2023/06/06 09:53:31;;;;;;;5.75;2.70;;;26.10;12.30;;;;;;10496491;28;20229;-87
2023/06/06 09:58:35;;;;;;;5.03;2.42;;;26.10;15.60;;;;;;10511719;28;20236;-88
2023/06/06 10:03:38;;;;;;;5.45;2.90;;;26.10;12.00;;;;;;10533166;28;20600;-89
2023/06/06 10:08:42;;;;;;;5.72;2.28;;;26.30;13.40;;;;;;10513727;28;20579;-88
2023/06/06 10:13:46;;;;;;;3.83;2.25;;;;;;;;;;10514019;28;20222;-88
2023/06/06 10:18:49;;;;;;;5.07;2.80;;;26.30;13.90;;;;;;10514043;28;20240;-88
2023/06/06 10:23:53;;;;;;;3.22;2.65;;;26.20;11.10;;;;;;10529785;28;20295;-88
2023/06/06 10:29:04;;;;;;;3.33;1.95;;;26.30;10.90;;;;;;10530530;28;20662;-88
2023/06/06 10:34:16;;;;;;;5.45;2.72;;;26.40;11.20;;;;;;10514681;28;20267;-88
2023/06/06 10:39:22;;;;;;;4.65;2.25;;;26.50;12.90;;;;;;10499871;28;20214;-88
2023/06/06 10:44:52;;;;;;;4.88;2.42;;;26.50;13.60;;;;;;10540923;28;20729;-88
2023/06/06 10:50:11;;;;;;;4.28;2.40;;;26.50;12.70;;;;;;10500548;28;20295;-87
2023/06/06 10:55:14;;;;;;;2.95;1.90;;;26.50;13.00;;;;;;10496819;28;20236;-89
2023/06/06 11:00:17;;;;;;;2.97;2.22;;;26.40;12.10;;;;;;10522262;28;20201;-88
2023/06/06 11:05:21;;;;;;;6.80;2.30;;;26.40;12.40;;;;;;10504868;28;20201;-87
2023/06/06 11:10:24;;;;;;;4.75;1.50;;;26.30;13.20;;;;;;10520254;28;20245;-88
2023/06/06 11:15:30;;;;;;;4.78;2.38;;;26.20;13.60;;;;;;10541491;28;20259;-96
2023/06/06 11:20:40;;;;;;;7.28;2.70;;;26.10;14.30;;;;;;10532156;28;20201;-95
2023/06/06 11:25:44;;;;;;;4.18;1.58;;;26.00;11.40;;;;;;10529554;28;20258;-91
2023/06/06 11:30:47;;;;;;;6.35;1.65;;;26.00;11.20;;;;;;10520282;28;20632;-91
2023/06/06 11:35:55;;;;;;;2.42;2.22;;;26.00;11.00;;;;;;10522787;28;20582;-91
2023/06/06 11:41:03;;;;;;;10.63;3.35;;;26.00;10.80;;;;;;10551939;28;20235;-91
2023/06/06 11:46:06;;;;;;;4.22;1.95;;;25.90;10.70;;;;;;10572383;28;20522;-90
2023/06/06 11:51:14;;;;;;;4.47;1.95;;;25.80;10.70;;;;;;10549174;28;20768;-92
2023/06/06 11:56:20;;;;;;;4.28;2.22;;;25.80;13.30;;;;;;10529369;28;20202;-92
2023/06/06 12:01:25;;;;;;;3.38;1.70;;;25.70;11.90;;;;;;10532271;28;20202;-90
2023/06/06 12:06:28;;;;;;;5.53;2.30;;;25.70;10.80;;;;;;10493880;28;20210;-91
2023/06/06 12:11:32;;;;;;;4.55;2.08;;;25.60;9.30;;;;;;10503973;28;20268;-92
2023/06/06 12:16:35;;;;;;;6.15;2.45;;;25.60;9.30;;;;;;10540290;28;20256;-92
2023/06/06 12:21:49;;;;;;;4.45;2.65;;;25.60;8.00;;;;;;10519858;28;20765;-93
2023/06/06 12:26:56;;;;;;;5.70;2.33;;;25.60;9.90;;;;;;10491935;28;20210;-93
2023/06/06 12:32:15;;;;;;;5.28;2.38;;;25.70;7.20;;;;;;10542490;28;20742;-94
2023/06/06 12:37:18;;;;;;;4.20;2.30;;;25.70;8.40;;;;;;10521892;28;20240;-94
2023/06/06 12:42:21;;;;;;;10.23;2.00;;;25.70;8.10;;;;;;10540122;28;20193;-92
2023/06/06 12:47:23;;;;;;;79.53;8.10;;;25.70;7.20;;;;;;10514876;28;20194;-92
2023/06/06 12:52:26;;;;;;;4.10;2.30;;;25.60;10.00;;;;;;10514586;28;20696;-93
2023/06/06 12:57:29;;;;;;;4.90;2.30;;;25.50;7.80;;;;;;10536593;28;20213;-90
2023/06/06 13:02:32;;;;;;;10.27;2.30;;;25.40;8.10;;;;;;10503926;28;20314;-94
2023/06/06 13:07:36;;;;;;;6.13;2.70;;;25.50;7.50;;;;;;10523509;28;20205;-93
2023/06/06 13:12:40;;;;;;;6.28;2.88;;;25.50;9.60;;;;;;10523375;28;20236;-93
2023/06/06 13:17:43;;;;;;;17.35;3.05;;;25.50;8.10;;;;;;10526155;28;20680;-95
2023/06/06 13:22:45;;;;;;;22.33;3.35;;;25.60;9.70;;;;;;10510282;28;20206;-94
2023/06/06 13:27:48;;;;;;;12.18;2.80;;;25.60;9.40;;;;;;10536382;28;20201;-89
2023/06/06 13:32:51;;;;;;;5.43;2.33;;;25.50;8.30;;;;;;10535708;28;20257;-90
2023/06/06 13:37:54;;;;;;;6.85;2.17;;;25.50;8.80;;;;;;10517222;28;20257;-89
2023/06/06 13:42:56;;;;;;;14.80;3.15;;;25.80;9.80;;;;;;10500724;28;20219;-92
2023/06/06 13:47:59;;;;;;;2.33;1.90;;;25.80;8.50;;;;;;10534163;28;20290;-90
2023/06/06 13:53:03;;;;;;;14.45;3.05;;;25.90;7.00;;;;;;10516588;28;20237;-92
2023/06/06 13:58:07;;;;;;;7.85;2.22;;;26.10;8.60;;;;;;10517106;28;20250;-89
2023/06/06 14:03:10;;;;;;;10.00;2.35;;;26.00;8.10;;;;;;10534464;28;20237;-91
2023/06/06 14:08:13;;;;;;;5.65;1.88;;;26.00;6.40;;;;;;10536610;28;20259;-89
2023/06/06 14:13:16;;;;;;;4.38;2.00;;;26.00;8.20;;;;;;10534184;28;20265;-89
2023/06/06 14:18:18;;;;;;;10.52;2.92;;;25.80;7.00;;;;;;10533051;28;20303;-89
2023/06/06 14:23:21;;;;;;;6.85;2.85;;;25.70;6.80;;;;;;10502470;28;20556;-94
2023/06/06 14:28:24;;;;;;;6.45;2.10;;;25.60;7.10;;;;;;10479557;28;20280;-93
2023/06/06 14:33:28;;;;;;;3.05;1.85;;;25.60;6.60;;;;;;10517797;28;20221;-92
2023/06/06 14:38:33;;;;;;;34.80;3.05;;;25.40;6.80;;;;;;10529308;28;20241;-89
2023/06/06 14:43:35;;;;;;;27.33;3.53;;;25.40;8.50;;;;;;10515166;28;20237;-90
2023/06/06 14:48:39;;;;;;;13.50;2.88;;;25.30;9.70;;;;;;10514657;28;20202;-89
2023/06/06 14:53:42;;;;;;;14.27;2.97;;;25.10;9.00;;;;;;10511730;28;20261;-90
2023/06/06 14:58:45;;;;;;;6.55;2.20;;;25.10;9.10;;;;;;10522302;28;20584;-89
2023/06/06 15:03:50;;;;;;;14.82;3.97;;;25.00;8.90;;;;;;10524406;28;20271;-90
2023/06/06 15:08:53;;;;;;;12.77;3.08;;;25.00;10.60;;;;;;10491907;28;20619;-89
2023/06/06 15:13:56;;;;;;;9.27;2.58;;;25.00;12.10;;;;;;10498020;28;20691;-92
2023/06/06 15:18:59;;;;;;;14.57;2.90;;;25.00;11.30;;;;;;10507512;28;20201;-88
2023/06/06 15:24:02;;;;;;;11.57;3.10;;;25.00;10.20;;;;;;10531564;28;20205;-88
2023/06/06 15:29:05;;;;;;;10.35;2.20;;;25.00;12.20;;;;;;10518570;28;20254;-89
2023/06/06 15:34:07;;;;;;;15.63;3.17;;;25.00;13.10;;;;;;10539126;28;20269;-89
2023/06/06 15:39:10;;;;;;;14.70;1.85;;;25.00;13.70;;;;;;10533545;28;20612;-90
2023/06/06 15:44:13;;;;;;;4.10;2.20;;;25.00;13.60;;;;;;10521459;28;20560;-86
2023/06/06 15:49:17;;;;;;;6.90;2.33;;;25.00;12.40;;;;;;10520379;28;20227;-90
2023/06/06 15:54:20;;;;;;;6.80;2.15;;;25.00;13.50;;;;;;10518789;28;20268;-89
2023/06/06 15:59:23;;;;;;;5.28;2.10;;;25.00;10.60;;;;;;10504721;28;20198;-89
2023/06/06 16:04:26;;;;;;;6.75;2.05;;;24.90;12.60;;;;;;10500055;28;20194;-88
2023/06/06 16:09:28;;;;;;;3.75;2.28;;;24.80;13.50;;;;;;10520740;28;20232;-89
2023/06/06 16:14:31;;;;;;;8.68;2.47;;;24.80;11.50;;;;;;10521083;28;20632;-89
2023/06/06 16:19:34;;;;;;;8.90;1.90;;;24.70;13.40;;;;;;10520910;28;20726;-89
2023/06/06 16:24:38;;;;;;;14.20;2.80;;;24.60;13.70;;;;;;10520109;28;20205;-92
2023/06/06 16:29:40;;;;;;;9.13;2.63;;;24.50;14.10;;;;;;10535484;28;20287;-91
2023/06/06 16:34:43;;;;;;;8.98;2.28;;;24.40;14.40;;;;;;10523880;28;20698;-86
2023/06/06 16:39:46;;;;;;;5.05;1.95;;;24.30;15.00;;;;;;10536257;28;20259;-86
2023/06/06 16:44:48;;;;;;;3.47;2.00;;;24.20;15.00;;;;;;10518526;28;20225;-87
2023/06/06 16:49:51;;;;;;;1.75;1.25;;;24.10;15.50;;;;;;10500007;28;20299;-88
2023/06/06 16:54:54;;;;;;;3.80;1.52;;;24.00;15.20;;;;;;10495833;28;20622;-88
2023/06/06 16:59:57;;;;;;;6.38;2.28;;;23.80;14.60;;;;;;10507667;28;20206;-89
2023/06/06 17:05:00;;;;;;;1.88;1.63;;;23.60;13.50;;;;;;10521903;28;20282;-90
2023/06/06 17:10:03;;;;;;;3.97;1.92;;;23.40;12.10;;;;;;10506573;28;20237;-90
2023/06/06 17:15:07;;;;;;;5.93;2.50;;;23.30;16.70;;;;;;10501811;28;20288;-90
2023/06/06 17:20:10;;;;;;;8.70;2.53;;;23.30;20.50;;;;;;10509830;28;20299;-89
2023/06/06 17:25:12;;;;;;;3.75;2.05;;;23.20;19.60;;;;;;10515589;28;20224;-89
2023/06/06 17:30:17;;;;;;;5.07;2.22;;;23.10;21.20;;;;;;10536111;28;20202;-92
2023/06/06 17:35:19;;;;;;;8.55;2.08;;;23.00;20.60;;;;;;10559790;28;20186;-91
2023/06/06 17:40:22;;;;;;;8.30;2.35;;;23.00;18.90;;;;;;10529791;28;20248;-89
2023/06/06 17:45:25;;;;;;;7.75;2.50;;;22.90;21.80;;;;;;10515729;28;20228;-90
2023/06/06 17:50:28;;;;;;;3.65;2.75;;;22.80;20.30;;;;;;10504872;28;20214;-88
2023/06/06 17:55:31;;;;;;;6.00;2.55;;;22.70;21.20;;;;;;10488512;28;20295;-91
2023/06/06 18:00:35;;;;;;;5.82;2.55;;;22.60;22.20;;;;;;10510835;28;20295;-90
2023/06/06 18:05:37;;;;;;;7.13;3.05;;;22.60;23.60;;;;;;10503460;28;20260;-90
2023/06/06 18:10:40;;;;;;;8.38;3.17;;;22.50;24.20;;;;;;10509361;28;20580;-89
2023/06/06 18:15:44;;;;;;;3.40;2.22;;;22.50;23.20;;;;;;10495443;28;20260;-88
2023/06/06 18:20:47;;;;;;;7.57;2.67;;;22.30;25.40;;;;;;10485755;28;20266;-90
2023/06/06 18:25:51;;;;;;;6.25;2.95;;;22.30;25.50;;;;;;10517988;28;20252;-90
2023/06/06 18:30:53;;;;;;;3.88;2.28;;;22.20;26.40;;;;;;10501247;28;20253;-89
2023/06/06 18:35:56;;;;;;;8.43;3.33;;;22.10;27.20;;;;;;10497639;28;20249;-90
2023/06/06 18:40:59;;;;;;;6.38;4.15;;;22.00;25.90;;;;;;10513363;28;20754;-89
2023/06/06 18:46:02;;;;;;;5.07;2.55;;;21.80;25.00;;;;;;10491856;28;20251;-89
2023/06/06 18:51:06;;;;;;;8.48;3.53;;;21.60;27.40;;;;;;10500598;28;20314;-89
2023/06/06 18:56:08;;;;;;;8.07;3.30;;;21.40;26.90;;;;;;10499998;28;20723;-89
2023/06/06 19:01:12;;;;;;;4.28;3.00;;;21.30;27.30;;;;;;10497785;28;20292;-90
2023/06/06 19:06:15;;;;;;;9.60;3.45;;;21.20;28.30;;;;;;10508373;28;20230;-93
2023/06/06 19:11:17;;;;;;;7.70;3.30;;;21.10;28.70;;;;;;10517470;28;20265;-90
2023/06/06 19:16:20;;;;;;;4.90;2.95;;;21.00;30.10;;;;;;10508169;28;20284;-90
2023/06/06 19:21:23;;;;;;;23.08;4.78;;;20.80;30.90;;;;;;10528139;28;20628;-87
2023/06/06 19:26:25;;;;;;;4.70;2.80;;;20.60;33.20;;;;;;10523365;28;20517;-91
2023/06/06 19:31:28;;;;;;;4.43;2.90;;;20.50;33.70;;;;;;10527249;28;20334;-91
2023/06/06 19:36:31;;;;;;;3.03;2.70;;;20.50;34.40;;;;;;10504482;28;20662;-90
2023/06/06 19:41:33;;;;;;;12.93;3.88;;;20.50;34.50;;;;;;10491290;28;20286;-90
2023/06/06 19:46:36;;;;;;;8.13;4.25;;;20.40;35.20;;;;;;10507628;28;20599;-89
2023/06/06 19:51:39;;;;;;;13.05;3.75;;;20.20;37.20;;;;;;10530486;28;20260;-87
2023/06/06 19:56:42;;;;;;;6.93;3.25;;;20.00;38.40;;;;;;10510250;28;20661;-90
2023/06/06 20:01:46;;;;;;;20.75;4.90;;;20.00;39.40;;;;;;10506400;28;20546;-91
2023/06/06 20:06:49;;;;;;;12.23;4.22;;;19.80;40.30;;;;;;10519959;28;20239;-90
2023/06/06 20:11:51;;;;;;;6.95;3.08;;;19.60;42.40;;;;;;10536904;28;20651;-90
2023/06/06 20:16:57;;;;;;;4.40;3.47;;;19.50;44.20;;;;;;10521511;28;20697;-90
2023/06/06 20:22:01;;;;;;;9.48;4.07;;;19.40;44.40;;;;;;10521070;28;20210;-90
2023/06/06 20:27:13;;;;;;;5.80;3.67;;;19.20;46.40;;;;;;10519924;28;20201;-90
2023/06/06 20:32:15;;;;;;;12.43;4.20;;;19.00;48.80;;;;;;10518881;28;20245;-90
2023/06/06 20:37:19;;;;;;;15.93;4.68;;;18.80;50.80;;;;;;10520404;28;20556;-91
2023/06/06 20:42:22;;;;;;;12.60;4.90;;;18.70;52.10;;;;;;10528025;28;20729;-90
2023/06/06 20:47:24;;;;;;;8.43;4.53;;;18.50;54.90;;;;;;10534743;28;20216;-90
2023/06/06 20:52:29;;;;;;;13.23;4.40;;;18.30;57.20;;;;;;10524153;28;20276;-90
2023/06/06 20:57:32;;;;;;;3.22;2.35;;;18.20;57.30;;;;;;10537485;28;20197;-89
2023/06/06 21:02:34;;;;;;;6.25;3.30;;;18.20;60.10;;;;;;10536194;28;20270;-90
2023/06/06 21:07:37;;;;;;;4.68;3.20;;;18.30;61.80;;;;;;10531149;28;20222;-90
2023/06/06 21:12:41;;;;;;;7.47;3.72;;;18.20;63.50;;;;;;10535430;28;20256;-91
2023/06/06 21:17:44;;;;;;;2.85;2.40;;;18.20;65.10;;;;;;10523097;28;20229;-90
2023/06/06 21:22:47;;;;;;;10.68;4.55;;;18.10;66.70;;;;;;10529273;28;20282;-91
2023/06/06 21:27:49;;;;;;;13.60;3.78;;;18.10;68.20;;;;;;10531323;28;20222;-90
2023/06/06 21:32:52;;;;;;;7.47;3.83;;;18.10;70.60;;;;;;10516707;28;20257;-90
2023/06/06 21:37:55;;;;;;;5.55;4.18;;;18.00;72.50;;;;;;10511777;28;20226;-89
2023/06/06 21:42:57;;;;;;;7.85;3.78;;;17.90;75.70;;;;;;10526168;28;20256;-90
2023/06/06 21:48:00;;;;;;;9.68;3.55;;;18.00;74.90;;;;;;10513464;28;20225;-90
2023/06/06 21:53:03;;;;;;;12.38;4.70;;;18.00;78.30;;;;;;10528669;28;20256;-90
2023/06/06 21:58:05;;;;;;;11.93;3.83;;;17.90;79.40;;;;;;10534919;28;20201;-89
2023/06/06 22:03:08;;;;;;;15.90;4.90;;;17.90;79.30;;;;;;10527529;28;20286;-93
2023/06/06 22:08:11;;;;;;;15.15;4.85;;;17.90;81.00;;;;;;10512037;28;20288;-90
2023/06/06 22:13:13;;;;;;;9.57;4.45;;;17.80;79.40;;;;;;10530258;28;20744;-91
2023/06/06 22:18:16;;;;;;;10.73;3.97;;;17.80;81.50;;;;;;10533724;28;20221;-90
2023/06/06 22:23:20;;;;;;;9.90;4.13;;;17.80;82.60;;;;;;10527309;28;20222;-92
2023/06/06 22:28:24;;;;;;;5.72;3.92;;;17.70;82.10;;;;;;10525846;28;20222;-90
2023/06/06 22:33:26;;;;;;;6.10;3.78;;;17.70;83.20;;;;;;10520201;28;20283;-90
2023/06/06 22:38:29;;;;;;;7.25;3.38;;;17.60;83.40;;;;;;10520651;28;20201;-90
2023/06/06 22:43:32;;;;;;;7.70;3.53;;;17.60;84.00;;;;;;10540357;28;20676;-90
2023/06/06 22:48:35;;;;;;;9.45;4.53;;;17.60;84.80;;;;;;10502298;28;20202;-91
2023/06/06 22:53:38;;;;;;;7.85;3.80;;;17.60;84.10;;;;;;10496536;28;20257;-93
2023/06/06 22:58:41;;;;;;;12.25;4.53;;;17.50;84.20;;;;;;10541556;28;20205;-91
2023/06/06 23:03:43;;;;;;;5.50;3.50;;;17.50;83.80;;;;;;10523721;28;20229;-90
2023/06/06 23:08:46;;;;;;;4.30;3.90;;;17.60;84.20;;;;;;10539023;28;20225;-90
2023/06/06 23:13:49;;;;;;;5.68;3.60;;;17.50;83.50;;;;;;10522569;28;20712;-90
2023/06/06 23:18:52;;;;;;;5.10;4.60;;;17.50;82.30;;;;;;10521025;28;20229;-89
2023/06/06 23:23:55;;;;;;;2.55;2.20;;;17.50;76.90;;;;;;10526064;28;20615;-90
2023/06/06 23:28:58;;;;;;;3.72;3.30;;;17.50;79.00;;;;;;10511753;28;20598;-90
2023/06/06 23:34:01;;;;;;;3.85;2.38;;;17.80;77.90;;;;;;10538282;28;20255;-90
2023/06/06 23:39:04;;;;;;;9.82;4.43;;;17.70;76.20;;;;;;10522023;28;20221;-90
2023/06/06 23:44:06;;;;;;;7.00;4.47;;;17.70;72.10;;;;;;10541113;28;20193;-90
2023/06/06 23:49:09;;;;;;;5.05;4.07;;;17.50;70.70;;;;;;10504814;28;20222;-89
2023/06/06 23:54:12;;;;;;;3.45;3.15;;;17.50;71.80;;;;;;10505317;28;20265;-89
2023/06/06 23:59:15;;;;;;;8.63;4.40;;;17.40;73.10;;;;;;10516989;28;20252;-90
